createdAt,value
2023-08-31T00:02:26.354Z,81.13
2023-08-31T00:04:56.406Z,107.20
2023-08-31T00:07:24.594Z,94.30
2023-08-31T00:09:54.988Z,102.70
2023-08-31T00:12:23.354Z,81.97
2023-08-31T00:14:53.040Z,83.13
2023-08-31T00:17:20.805Z,79.20
2023-08-31T00:19:48.555Z,81.35
2023-08-31T00:22:16.317Z,81.27
2023-08-31T00:24:44.128Z,95.45
2023-08-31T00:27:13.440Z,79.18
2023-08-31T00:29:41.693Z,87.80
2023-08-31T00:32:12.931Z,82.25
2023-08-31T00:34:40.697Z,76.72
2023-08-31T00:37:10.779Z,76.78
2023-08-31T00:39:38.627Z,61.53
2023-08-31T00:42:06.909Z,60.70
2023-08-31T00:44:34.754Z,53.25
2023-08-31T00:47:03.171Z,53.97
2023-08-31T00:49:32.438Z,58.97
2023-08-31T00:52:00.266Z,76.00
2023-08-31T00:54:28.780Z,79.43
2023-08-31T00:56:58.242Z,89.43
2023-08-31T00:59:27.637Z,90.65
2023-08-31T01:02:05.954Z,90.85
2023-08-31T01:04:43.525Z,69.93
2023-08-31T01:07:23.151Z,61.60
2023-08-31T01:09:59.982Z,68.82
2023-08-31T01:12:33.978Z,82.63
2023-08-31T01:15:08.400Z,98.27
2023-08-31T01:17:43.437Z,116.38
2023-08-31T01:20:17.198Z,135.82
2023-08-31T01:22:49.143Z,154.57
2023-08-31T01:25:20.648Z,136.32
2023-08-31T01:27:48.826Z,102.97
2023-08-31T01:30:17.189Z,81.35
2023-08-31T01:32:47.459Z,105.20
2023-08-31T01:35:19.030Z,92.30
2023-08-31T01:37:54.889Z,88.60
2023-08-31T01:40:28.599Z,99.15
2023-08-31T01:42:57.608Z,109.85
2023-08-31T01:45:27.201Z,104.95
2023-08-31T01:47:55.210Z,104.67
2023-08-31T01:50:25.350Z,112.97
2023-08-31T01:52:54.424Z,113.05
2023-08-31T01:55:22.927Z,89.97
2023-08-31T01:57:52.128Z,76.35
2023-08-31T02:00:28.674Z,76.80
2023-08-31T02:02:57.951Z,79.68
2023-08-31T02:05:25.942Z,123.73
2023-08-31T02:07:54.647Z,120.05
2023-08-31T02:10:24.608Z,83.28
2023-08-31T02:12:53.821Z,75.38
2023-08-31T02:15:21.774Z,107.53
2023-08-31T02:17:49.621Z,122.40
2023-08-31T02:20:21.584Z,144.07
2023-08-31T02:22:50.386Z,127.45
2023-08-31T02:25:18.688Z,91.90
2023-08-31T02:27:47.915Z,97.00
2023-08-31T02:30:18.516Z,124.38
2023-08-31T02:32:46.377Z,130.75
2023-08-31T02:35:15.746Z,146.80
2023-08-31T02:37:43.542Z,94.95
2023-08-31T02:40:13.101Z,146.30
2023-08-31T02:42:40.930Z,156.60
2023-08-31T02:45:09.342Z,153.45
2023-08-31T02:47:38.705Z,106.47
2023-08-31T02:50:08.109Z,80.43
2023-08-31T02:52:35.909Z,96.57
2023-08-31T02:55:04.510Z,135.43
2023-08-31T02:57:32.257Z,102.25
2023-08-31T03:00:00.415Z,102.15
2023-08-31T03:02:28.532Z,90.20
2023-08-31T03:04:58.855Z,125.38
2023-08-31T03:07:26.830Z,118.25
2023-08-31T03:09:54.561Z,87.13
2023-08-31T03:12:23.433Z,111.72
2023-08-31T03:14:51.189Z,125.83
2023-08-31T03:17:19.682Z,75.22
2023-08-31T03:19:47.532Z,66.68
2023-08-31T03:22:16.814Z,76.53
2023-08-31T03:24:44.616Z,97.03
2023-08-31T03:27:12.409Z,91.85
2023-08-31T03:29:41.345Z,168.27
2023-08-31T03:32:09.192Z,173.38
2023-08-31T03:34:36.953Z,190.15
2023-08-31T03:37:04.946Z,161.20
2023-08-31T03:39:35.782Z,92.07
2023-08-31T03:42:03.630Z,58.35
2023-08-31T03:44:31.503Z,90.32
2023-08-31T03:46:59.287Z,117.55
2023-08-31T03:49:28.097Z,89.20
2023-08-31T03:51:55.930Z,80.70
2023-08-31T03:54:23.762Z,109.95
2023-08-31T03:56:54.509Z,132.98
2023-08-31T03:59:22.526Z,170.33
2023-08-31T04:01:50.472Z,189.30
2023-08-31T04:04:18.452Z,148.35
2023-08-31T04:06:48.408Z,126.88
2023-08-31T04:09:16.223Z,176.60
2023-08-31T04:11:44.259Z,160.05
2023-08-31T04:14:13.420Z,197.50
2023-08-31T04:16:41.528Z,224.57
2023-08-31T04:19:10.135Z,187.23
2023-08-31T04:21:39.174Z,213.43
2023-08-31T04:24:08.055Z,243.38
2023-08-31T04:26:35.873Z,147.07
2023-08-31T04:29:04.719Z,133.18
2023-08-31T04:31:33.856Z,130.00
2023-08-31T04:34:01.716Z,126.70
2023-08-31T04:36:29.838Z,132.00
2023-08-31T04:38:57.579Z,206.80
2023-08-31T04:41:25.392Z,218.50
2023-08-31T04:43:53.475Z,120.28
2023-08-31T04:46:21.435Z,86.88
2023-08-31T04:48:50.561Z,65.78
2023-08-31T04:51:33.453Z,87.13
2023-08-31T04:54:01.485Z,118.75
2023-08-31T04:56:34.084Z,145.55
2023-08-31T04:59:03.485Z,185.80
2023-08-31T05:01:31.620Z,128.65
2023-08-31T05:04:01.294Z,106.55
2023-08-31T05:06:29.106Z,203.80
2023-08-31T05:08:57.818Z,228.07
2023-08-31T05:11:28.002Z,156.07
2023-08-31T05:13:55.794Z,252.77
2023-08-31T05:16:23.595Z,148.48
2023-08-31T05:18:51.455Z,164.93
2023-08-31T05:21:20.565Z,173.18
2023-08-31T05:23:48.457Z,95.43
2023-08-31T05:26:16.704Z,99.65
2023-08-31T05:28:45.490Z,117.30
2023-08-31T05:31:13.527Z,99.18
2023-08-31T05:33:41.520Z,89.15
2023-08-31T05:36:09.275Z,91.28
2023-08-31T05:38:38.694Z,110.07
2023-08-31T05:41:09.417Z,150.07
2023-08-31T05:43:41.231Z,173.90
2023-08-31T05:46:11.861Z,105.90
2023-08-31T05:48:39.945Z,153.98
2023-08-31T05:51:07.972Z,158.77
2023-08-31T05:53:35.924Z,200.20
2023-08-31T05:56:06.123Z,213.55
2023-08-31T05:58:37.821Z,239.97
2023-08-31T06:01:06.993Z,277.17
2023-08-31T06:03:35.424Z,281.48
2023-08-31T06:06:04.686Z,225.43
2023-08-31T06:08:32.668Z,164.32
2023-08-31T06:11:03.632Z,237.13
2023-08-31T06:13:32.854Z,260.30
2023-08-31T06:16:01.006Z,212.57
2023-08-31T06:18:30.785Z,278.92
2023-08-31T06:20:59.131Z,252.40
2023-08-31T06:23:26.975Z,227.32
2023-08-31T06:25:54.911Z,193.07
2023-08-31T06:28:22.789Z,249.00
2023-08-31T06:30:52.696Z,230.75
2023-08-31T06:33:21.192Z,222.85
2023-08-31T06:35:53.043Z,160.55
2023-08-31T06:38:21.318Z,160.07
2023-08-31T06:40:49.641Z,126.70
2023-08-31T06:43:17.494Z,159.50
2023-08-31T06:45:45.402Z,240.87
2023-08-31T06:48:14.786Z,252.40
2023-08-31T06:50:42.632Z,278.73
2023-08-31T06:53:10.826Z,278.43
2023-08-31T06:55:39.492Z,292.48
2023-08-31T06:58:09.788Z,326.30
2023-08-31T07:00:39.734Z,289.67
2023-08-31T07:03:10.180Z,232.03
2023-08-31T07:05:44.634Z,279.83
2023-08-31T07:08:12.760Z,235.90
2023-08-31T07:10:40.612Z,243.02
2023-08-31T07:13:10.874Z,234.57
2023-08-31T07:15:39.524Z,245.35
2023-08-31T07:18:07.368Z,223.10
2023-08-31T07:20:35.566Z,191.48
2023-08-31T07:23:07.137Z,191.67
2023-08-31T07:25:35.221Z,179.60
2023-08-31T07:28:04.120Z,138.30
2023-08-31T07:30:34.253Z,161.23
2023-08-31T07:33:11.006Z,140.20
2023-08-31T07:35:45.066Z,151.03
2023-08-31T07:38:14.333Z,109.93
2023-08-31T07:40:43.049Z,109.20
2023-08-31T07:43:13.215Z,94.85
2023-08-31T07:45:41.347Z,99.00
2023-08-31T07:48:09.249Z,114.35
2023-08-31T07:50:37.131Z,143.32
2023-08-31T07:53:05.565Z,135.70
2023-08-31T07:55:34.804Z,125.72
2023-08-31T07:58:03.747Z,145.43
2023-08-31T08:00:31.602Z,216.07
2023-08-31T08:02:59.593Z,218.00
2023-08-31T08:05:27.556Z,258.17
2023-08-31T08:07:55.445Z,299.10
2023-08-31T08:10:23.275Z,269.67
2023-08-31T08:12:52.519Z,248.52
2023-08-31T08:15:20.673Z,267.45
2023-08-31T08:17:49.363Z,336.75
2023-08-31T08:20:17.428Z,360.30
2023-08-31T08:22:48.674Z,368.65
2023-08-31T08:25:18.841Z,358.98
2023-08-31T08:27:46.690Z,348.17
2023-08-31T08:30:16.727Z,360.90
2023-08-31T08:32:45.287Z,483.83
2023-08-31T08:35:13.284Z,542.17
2023-08-31T08:37:41.121Z,433.83
2023-08-31T08:40:09.991Z,258.17
2023-08-31T08:42:43.319Z,237.65
2023-08-31T08:45:17.413Z,415.17
2023-08-31T08:47:46.312Z,548.53
2023-08-31T08:50:14.925Z,550.75
2023-08-31T08:52:43.911Z,480.45
2023-08-31T08:55:12.422Z,474.38
2023-08-31T08:57:40.792Z,384.43
2023-08-31T09:00:12.101Z,302.55
2023-08-31T09:02:41.416Z,275.02
2023-08-31T09:05:11.969Z,303.48
2023-08-31T09:08:02.446Z,349.15
2023-08-31T09:10:37.625Z,401.27
2023-08-31T09:13:08.430Z,362.73
2023-08-31T09:15:42.669Z,351.35
2023-08-31T09:18:16.921Z,319.15
2023-08-31T09:20:46.553Z,299.45
2023-08-31T09:23:14.730Z,317.17
2023-08-31T09:25:48.685Z,266.47
2023-08-31T09:28:17.428Z,226.57
2023-08-31T09:30:45.497Z,159.65
2023-08-31T09:33:18.746Z,143.73
2023-08-31T09:35:52.000Z,126.70
2023-08-31T09:38:20.084Z,139.30
2023-08-31T09:40:48.403Z,143.32
2023-08-31T09:43:22.108Z,125.90
2023-08-31T09:45:50.848Z,80.43
2023-08-31T09:48:21.444Z,92.82
2023-08-31T09:50:50.875Z,125.63
2023-08-31T09:53:19.187Z,100.40
2023-08-31T09:55:49.210Z,61.40
2023-08-31T09:58:20.723Z,36.85
2023-08-31T10:00:50.321Z,72.78
2023-08-31T10:03:19.574Z,71.60
2023-08-31T10:05:51.469Z,47.42
2023-08-31T10:08:20.703Z,77.88
2023-08-31T10:10:48.721Z,90.50
2023-08-31T10:13:17.442Z,35.83
2023-08-31T10:15:46.367Z,56.35
2023-08-31T10:18:14.213Z,67.20
2023-08-31T10:20:45.216Z,92.45
2023-08-31T10:23:15.510Z,52.10
2023-08-31T10:26:05.946Z,95.53
2023-08-31T10:28:41.936Z,77.20
2023-08-31T10:31:11.412Z,82.93
2023-08-31T10:33:43.575Z,72.25
2023-08-31T10:36:12.426Z,74.63
2023-08-31T10:38:41.958Z,73.45
2023-08-31T10:41:24.106Z,77.05
2023-08-31T10:43:53.587Z,72.82
2023-08-31T10:46:29.602Z,82.90
2023-08-31T10:48:59.118Z,78.28
2023-08-31T10:51:29.359Z,71.22
2023-08-31T10:54:10.664Z,76.07
2023-08-31T10:56:55.871Z,68.20
2023-08-31T10:59:24.385Z,71.43
2023-08-31T11:01:59.144Z,75.78
2023-08-31T11:04:28.817Z,71.22
2023-08-31T11:07:15.387Z,71.18
2023-08-31T11:09:48.155Z,67.82
2023-08-31T11:12:18.115Z,77.70
2023-08-31T11:14:46.297Z,69.03
2023-08-31T11:17:14.091Z,66.32
2023-08-31T11:19:43.462Z,67.70
2023-08-31T11:22:13.820Z,69.75
2023-08-31T11:24:44.036Z,69.57
2023-08-31T11:27:13.294Z,67.35
2023-08-31T11:29:45.391Z,59.85
2023-08-31T11:32:15.539Z,57.47
2023-08-31T11:34:44.498Z,63.58
2023-08-31T11:37:17.613Z,37.92
2023-08-31T11:39:51.758Z,67.57
2023-08-31T11:42:22.130Z,58.97
2023-08-31T11:44:51.226Z,58.10
2023-08-31T11:47:19.879Z,65.50
2023-08-31T11:49:49.821Z,61.88
2023-08-31T11:52:20.702Z,58.30
2023-08-31T11:54:54.047Z,63.53
2023-08-31T11:57:27.810Z,65.30
2023-08-31T11:59:56.224Z,61.63
2023-08-31T12:02:24.300Z,56.23
2023-08-31T12:04:54.290Z,60.45
2023-08-31T12:07:22.990Z,66.38
2023-08-31T12:09:51.407Z,55.70
2023-08-31T12:12:23.789Z,59.22
2023-08-31T12:14:54.956Z,61.47
2023-08-31T12:17:22.779Z,62.22
2023-08-31T12:19:50.600Z,62.07
2023-08-31T12:22:18.435Z,68.00
2023-08-31T12:24:46.249Z,57.90
2023-08-31T12:27:14.014Z,52.97
2023-08-31T12:29:43.244Z,55.97
2023-08-31T12:32:11.013Z,56.53
2023-08-31T12:34:38.765Z,54.13
2023-08-31T12:37:06.586Z,50.17
2023-08-31T12:39:34.508Z,35.17
2023-08-31T12:42:12.484Z,37.13
2023-08-31T12:44:50.112Z,32.07
2023-08-31T12:47:18.061Z,28.65
2023-08-31T12:49:45.852Z,48.58
2023-08-31T12:52:15.464Z,51.35
2023-08-31T12:54:43.390Z,47.17
2023-08-31T12:57:11.280Z,35.08
2023-08-31T12:59:39.073Z,37.47
2023-08-31T13:02:11.862Z,38.85
2023-08-31T13:04:41.517Z,34.55
2023-08-31T13:07:11.864Z,32.58
2023-08-31T13:09:41.990Z,33.72
2023-08-31T13:12:12.199Z,28.38
2023-08-31T13:14:40.119Z,29.77
2023-08-31T13:17:09.287Z,27.70
2023-08-31T13:19:37.118Z,25.05
2023-08-31T13:22:07.923Z,28.35
2023-08-31T13:24:35.731Z,23.42
2023-08-31T13:27:03.722Z,26.00
2023-08-31T13:29:33.125Z,15.23
2023-08-31T13:32:00.999Z,15.90
2023-08-31T13:34:30.433Z,27.67
2023-08-31T13:36:58.247Z,29.20
2023-08-31T13:39:26.149Z,24.35
2023-08-31T13:41:54.258Z,37.13
2023-08-31T13:44:22.497Z,20.25
2023-08-31T13:46:50.437Z,27.05
2023-08-31T13:49:18.427Z,26.98
2023-08-31T13:51:47.567Z,24.63
2023-08-31T13:54:15.473Z,26.58
2023-08-31T13:56:44.075Z,21.80
2023-08-31T13:59:14.034Z,23.90
2023-08-31T14:01:42.325Z,19.43
2023-08-31T14:04:10.083Z,22.77
2023-08-31T14:06:38.137Z,23.38
2023-08-31T14:09:09.150Z,22.47
2023-08-31T14:11:37.621Z,21.20
2023-08-31T14:14:10.355Z,21.03
2023-08-31T14:16:38.625Z,22.52
2023-08-31T14:19:06.928Z,20.52
2023-08-31T14:21:34.967Z,23.17
2023-08-31T14:24:02.928Z,35.67
2023-08-31T14:26:32.049Z,26.77
2023-08-31T14:29:00.008Z,36.35
2023-08-31T14:31:27.933Z,29.87
2023-08-31T14:33:56.812Z,30.35
2023-08-31T14:36:24.673Z,39.65
2023-08-31T14:38:52.424Z,41.53
2023-08-31T14:41:20.177Z,26.07
2023-08-31T14:43:49.351Z,32.45
2023-08-31T14:46:17.194Z,51.90
2023-08-31T14:48:45.345Z,35.53
2023-08-31T14:51:14.553Z,38.95
2023-08-31T14:53:43.315Z,31.38
2023-08-31T14:56:11.153Z,48.28
2023-08-31T14:58:39.128Z,50.53
2023-08-31T15:01:08.854Z,52.65
2023-08-31T15:03:37.625Z,47.60
2023-08-31T15:06:05.934Z,42.67
2023-08-31T15:08:38.598Z,56.30
2023-08-31T15:11:06.921Z,50.45
2023-08-31T15:13:34.824Z,40.97
2023-08-31T15:16:03.065Z,49.88
2023-08-31T15:18:32.667Z,48.92
2023-08-31T15:21:00.609Z,36.88
2023-08-31T15:23:28.437Z,52.22
2023-08-31T15:26:01.298Z,57.58
2023-08-31T15:28:29.182Z,50.67
2023-08-31T15:30:57.544Z,48.03
2023-08-31T15:33:25.398Z,55.47
2023-08-31T15:36:06.651Z,38.13
2023-08-31T15:38:35.017Z,55.78
2023-08-31T15:41:04.319Z,51.80
2023-08-31T15:43:35.406Z,40.97
2023-08-31T15:46:05.199Z,56.55
2023-08-31T15:48:33.235Z,57.67
2023-08-31T15:51:01.686Z,53.33
2023-08-31T15:53:31.604Z,51.63
2023-08-31T15:55:59.562Z,46.72
2023-08-31T15:58:28.126Z,48.17
2023-08-31T16:01:02.800Z,48.53
2023-08-31T16:03:32.085Z,42.67
2023-08-31T16:06:01.443Z,55.80
2023-08-31T16:08:30.626Z,43.42
2023-08-31T16:10:59.019Z,36.45
2023-08-31T16:13:27.168Z,33.95
2023-08-31T16:15:54.992Z,49.55
2023-08-31T16:18:22.816Z,37.42
2023-08-31T16:20:50.796Z,50.70
2023-08-31T16:23:18.601Z,43.97
2023-08-31T16:25:47.739Z,39.10
2023-08-31T16:28:15.839Z,34.38
2023-08-31T16:30:48.251Z,40.47
2023-08-31T16:33:16.238Z,46.42
2023-08-31T16:35:44.066Z,38.03
2023-08-31T16:38:12.391Z,44.47
2023-08-31T16:40:40.464Z,41.95
2023-08-31T16:43:09.558Z,45.97
2023-08-31T16:45:37.390Z,36.72
2023-08-31T16:48:06.028Z,37.88
2023-08-31T16:50:35.563Z,32.70
2023-08-31T16:53:04.200Z,41.65
2023-08-31T16:55:32.341Z,30.77
2023-08-31T16:58:03.778Z,33.00
2023-08-31T17:00:33.284Z,34.20
2023-08-31T17:03:01.153Z,32.60
2023-08-31T17:05:30.454Z,33.80
2023-08-31T17:07:58.273Z,30.77
2023-08-31T17:10:26.173Z,40.17
2023-08-31T17:12:54.376Z,34.15
2023-08-31T17:15:22.350Z,36.10
2023-08-31T17:17:53.405Z,36.17
2023-08-31T17:20:23.142Z,37.60
2023-08-31T17:22:50.955Z,46.95
2023-08-31T17:25:19.060Z,52.45
2023-08-31T17:27:46.881Z,51.60
2023-08-31T17:30:15.124Z,56.75
2023-08-31T17:32:43.145Z,50.78
2023-08-31T17:35:12.411Z,61.23
2023-08-31T17:37:40.295Z,54.63
2023-08-31T17:40:09.389Z,52.42
2023-08-31T17:42:38.510Z,58.92
2023-08-31T17:45:07.179Z,58.65
2023-08-31T17:47:35.253Z,58.80
2023-08-31T17:50:04.182Z,64.45
2023-08-31T17:52:33.725Z,79.18
2023-08-31T17:55:01.675Z,95.55
2023-08-31T17:57:30.234Z,121.63
2023-08-31T17:59:58.259Z,110.65
2023-08-31T18:02:28.680Z,128.50
2023-08-31T18:04:56.613Z,108.72
2023-08-31T18:07:24.424Z,101.00
2023-08-31T18:09:53.563Z,110.27
2023-08-31T18:12:21.521Z,113.30
2023-08-31T18:14:51.435Z,102.85
2023-08-31T18:17:20.232Z,96.50
2023-08-31T18:19:48.443Z,109.73
2023-08-31T18:22:16.315Z,114.47
2023-08-31T18:24:44.233Z,155.98
2023-08-31T18:27:13.491Z,137.77
2023-08-31T18:29:41.240Z,140.02
2023-08-31T18:32:09.281Z,138.60
2023-08-31T18:34:37.193Z,160.93
2023-08-31T18:37:05.419Z,177.05
2023-08-31T18:39:33.240Z,160.75
2023-08-31T18:42:03.083Z,140.75
2023-08-31T18:44:32.717Z,131.88
2023-08-31T18:47:00.509Z,137.80
2023-08-31T18:49:28.400Z,131.98
2023-08-31T18:51:59.382Z,121.35
2023-08-31T18:54:27.290Z,121.97
2023-08-31T18:56:55.154Z,111.32
2023-08-31T18:59:23.008Z,103.25
2023-08-31T19:01:54.246Z,99.93
2023-08-31T19:04:22.133Z,102.40
2023-08-31T19:06:53.293Z,92.73
2023-08-31T19:09:21.630Z,95.28
2023-08-31T19:11:49.891Z,96.03
2023-08-31T19:14:17.775Z,67.93
2023-08-31T19:16:45.792Z,86.75
2023-08-31T19:19:16.735Z,85.22
2023-08-31T19:21:46.020Z,130.03
2023-08-31T19:24:13.915Z,165.27
2023-08-31T19:26:42.865Z,177.18
2023-08-31T19:29:11.103Z,176.93
2023-08-31T19:31:39.177Z,175.23
2023-08-31T19:34:07.073Z,183.15
2023-08-31T19:36:36.217Z,189.83
2023-08-31T19:39:04.216Z,173.60
2023-08-31T19:41:33.141Z,180.15
2023-08-31T19:44:00.909Z,122.82
2023-08-31T19:46:28.743Z,115.37
2023-08-31T19:48:56.688Z,82.35
2023-08-31T19:51:24.558Z,76.43
2023-08-31T19:53:54.525Z,85.18
2023-08-31T19:56:22.528Z,92.10
2023-08-31T19:58:50.267Z,85.05
2023-08-31T20:01:20.443Z,77.47
2023-08-31T20:03:48.278Z,83.05
2023-08-31T20:06:16.219Z,81.20
2023-08-31T20:08:44.125Z,89.40
2023-08-31T20:11:13.655Z,87.65
2023-08-31T20:13:41.557Z,81.20
2023-08-31T20:16:10.845Z,76.60
2023-08-31T20:18:38.773Z,73.30
2023-08-31T20:21:06.608Z,38.10
2023-08-31T20:23:34.920Z,54.50
2023-08-31T20:26:03.483Z,46.85
2023-08-31T20:28:32.625Z,67.82
2023-08-31T20:31:01.567Z,66.75
2023-08-31T20:33:29.859Z,61.38
2023-08-31T20:36:08.944Z,50.25
2023-08-31T20:38:37.282Z,61.55
2023-08-31T20:41:06.492Z,52.90
2023-08-31T20:43:35.945Z,65.78
2023-08-31T20:46:08.720Z,63.25
2023-08-31T20:48:37.064Z,66.13
2023-08-31T20:51:05.610Z,59.30
2023-08-31T20:53:33.810Z,41.63
2023-08-31T20:56:09.097Z,62.77
2023-08-31T20:58:40.161Z,57.53
2023-08-31T21:01:08.533Z,48.42
2023-08-31T21:03:40.117Z,20.33
2023-08-31T21:06:08.575Z,25.42
2023-08-31T21:08:36.867Z,23.50
2023-08-31T21:11:04.751Z,26.27
2023-08-31T21:13:37.106Z,34.30
2023-08-31T21:16:07.270Z,41.40
2023-08-31T21:18:37.392Z,27.17
2023-08-31T21:21:06.387Z,34.53
2023-08-31T21:23:34.687Z,58.15
2023-08-31T21:26:03.661Z,35.28
2023-08-31T21:28:31.938Z,29.33
2023-08-31T21:31:02.451Z,28.42
2023-08-31T21:33:32.692Z,29.93
2023-08-31T21:36:01.634Z,31.20
2023-08-31T21:38:29.575Z,33.30
2023-08-31T21:40:57.392Z,35.65
2023-08-31T21:43:25.400Z,36.97
2023-08-31T21:45:53.178Z,39.03
2023-08-31T21:48:20.971Z,38.37
2023-08-31T21:50:50.182Z,49.50
2023-08-31T21:53:18.004Z,65.63
2023-08-31T21:55:45.812Z,46.70
2023-08-31T21:58:13.798Z,37.58
2023-08-31T22:00:41.740Z,37.22
2023-08-31T22:03:09.988Z,40.37
2023-08-31T22:05:40.358Z,67.95
2023-08-31T22:08:11.788Z,56.33
2023-08-31T22:10:40.848Z,53.43
2023-08-31T22:13:09.698Z,62.43
2023-08-31T22:15:40.906Z,98.15
2023-08-31T22:18:09.301Z,116.93
2023-08-31T22:20:37.654Z,122.60
2023-08-31T22:23:09.803Z,108.40
2023-08-31T22:25:37.879Z,88.60
2023-08-31T22:28:06.956Z,118.43
2023-08-31T22:30:35.029Z,123.10
2023-08-31T22:33:03.450Z,125.03
2023-08-31T22:35:32.420Z,136.73
2023-08-31T22:38:00.414Z,114.03
2023-08-31T22:40:29.514Z,117.68
2023-08-31T22:42:59.598Z,116.30
2023-08-31T22:45:27.694Z,114.15
2023-08-31T22:47:58.333Z,124.13
2023-08-31T22:50:26.095Z,68.80
2023-08-31T22:52:53.932Z,60.13
2023-08-31T22:55:24.120Z,34.75
2023-08-31T22:57:53.185Z,42.22
2023-08-31T23:00:21.109Z,53.22
2023-08-31T23:02:49.037Z,54.67
2023-08-31T23:05:17.080Z,36.70
2023-08-31T23:07:44.889Z,31.10
2023-08-31T23:10:19.071Z,35.28
2023-08-31T23:12:50.745Z,37.22
2023-08-31T23:15:20.077Z,34.23
2023-08-31T23:17:48.219Z,31.60
2023-08-31T23:20:16.083Z,32.25
2023-08-31T23:22:44.032Z,28.33
2023-08-31T23:25:11.837Z,31.33
2023-08-31T23:27:39.648Z,36.92
2023-08-31T23:30:08.992Z,41.23
2023-08-31T23:32:38.218Z,41.30
2023-08-31T23:35:07.124Z,38.63
2023-08-31T23:37:37.138Z,60.30
2023-08-31T23:40:09.944Z,71.30
2023-08-31T23:42:38.092Z,92.68
2023-08-31T23:45:07.918Z,96.63
2023-08-31T23:47:36.088Z,108.82
2023-08-31T23:50:05.958Z,114.57
2023-08-31T23:52:34.071Z,148.45
2023-08-31T23:55:01.870Z,158.00
2023-08-31T23:57:30.297Z,143.90
2023-08-31T23:59:58.216Z,114.50
